sensor_id;sensor_type;location;lat;lon;timestamp;pressure;altitude;pressure_sealevel;temperature;humidity
71476;BME280;59286;59.274;17.974;2023-10-13T00:01:45;100116.31;;;5.53;92.72
71476;BME280;59286;59.274;17.974;2023-10-13T00:04:12;100117.06;;;5.54;92.81
71476;BME280;59286;59.274;17.974;2023-10-13T00:06:37;100101.88;;;5.37;92.91
71476;BME280;59286;59.274;17.974;2023-10-13T00:09:02;100111.47;;;5.42;92.28
71476;BME280;59286;59.274;17.974;2023-10-13T00:11:29;100111.25;;;5.38;92.75
71476;BME280;59286;59.274;17.974;2023-10-13T00:13:54;100109.72;;;5.32;92.98
71476;BME280;59286;59.274;17.974;2023-10-13T00:16:21;100108.69;;;5.28;92.98
71476;BME280;59286;59.274;17.974;2023-10-13T00:18:50;100105.88;;;5.25;93.77
71476;BME280;59286;59.274;17.974;2023-10-13T00:21:22;100101.00;;;5.18;93.50
71476;BME280;59286;59.274;17.974;2023-10-13T00:23:58;100107.72;;;5.19;93.53
71476;BME280;59286;59.274;17.974;2023-10-13T00:26:28;100102.59;;;5.09;94.90
71476;BME280;59286;59.274;17.974;2023-10-13T00:28:55;100106.78;;;5.05;94.50
71476;BME280;59286;59.274;17.974;2023-10-13T00:31:26;100120.03;;;5.04;95.31
71476;BME280;59286;59.274;17.974;2023-10-13T00:33:57;100116.16;;;5.01;95.25
71476;BME280;59286;59.274;17.974;2023-10-13T00:36:26;100113.34;;;4.98;95.61
71476;BME280;59286;59.274;17.974;2023-10-13T00:38:52;100121.38;;;4.96;96.31
71476;BME280;59286;59.274;17.974;2023-10-13T00:41:17;100121.41;;;4.91;96.02
71476;BME280;59286;59.274;17.974;2023-10-13T00:43:51;100124.81;;;4.86;95.80
71476;BME280;59286;59.274;17.974;2023-10-13T00:46:34;100126.34;;;4.87;95.91
71476;BME280;59286;59.274;17.974;2023-10-13T00:49:01;100121.19;;;4.82;96.24
71476;BME280;59286;59.274;17.974;2023-10-13T00:51:30;100122.50;;;4.80;96.50
71476;BME280;59286;59.274;17.974;2023-10-13T00:54:06;100124.06;;;4.76;96.24
71476;BME280;59286;59.274;17.974;2023-10-13T00:56:45;100132.38;;;4.78;96.74
71476;BME280;59286;59.274;17.974;2023-10-13T00:59:36;100139.13;;;4.74;97.00
71476;BME280;59286;59.274;17.974;2023-10-13T01:02:02;100140.72;;;4.70;97.55
71476;BME280;59286;59.274;17.974;2023-10-13T01:04:48;100146.16;;;4.73;97.87
71476;BME280;59286;59.274;17.974;2023-10-13T01:07:14;100145.88;;;4.80;98.17
71476;BME280;59286;59.274;17.974;2023-10-13T01:09:44;100145.59;;;4.86;97.86
71476;BME280;59286;59.274;17.974;2023-10-13T01:12:12;100135.41;;;4.95;98.20
71476;BME280;59286;59.274;17.974;2023-10-13T01:14:37;100132.75;;;5.05;97.32
71476;BME280;59286;59.274;17.974;2023-10-13T01:17:03;100139.47;;;5.11;96.90
71476;BME280;59286;59.274;17.974;2023-10-13T01:19:29;100135.56;;;5.14;96.60
71476;BME280;59286;59.274;17.974;2023-10-13T01:21:55;100144.09;;;5.19;96.32
71476;BME280;59286;59.274;17.974;2023-10-13T01:24:32;100147.25;;;5.16;96.51
71476;BME280;59286;59.274;17.974;2023-10-13T01:27:00;100147.47;;;5.20;96.54
71476;BME280;59286;59.274;17.974;2023-10-13T01:29:35;100153.19;;;5.17;96.75
71476;BME280;59286;59.274;17.974;2023-10-13T01:32:01;100162.81;;;5.16;97.86
71476;BME280;59286;59.274;17.974;2023-10-13T01:34:26;100164.13;;;5.14;97.00
71476;BME280;59286;59.274;17.974;2023-10-13T01:36:55;100161.28;;;5.10;97.57
71476;BME280;59286;59.274;17.974;2023-10-13T01:39:21;100159.72;;;5.09;97.44
71476;BME280;59286;59.274;17.974;2023-10-13T01:41:47;100167.00;;;5.12;97.19
71476;BME280;59286;59.274;17.974;2023-10-13T01:44:29;100162.59;;;5.08;97.56
71476;BME280;59286;59.274;17.974;2023-10-13T01:46:56;100156.69;;;4.97;97.60
71476;BME280;59286;59.274;17.974;2023-10-13T01:49:24;100149.97;;;4.91;98.65
71476;BME280;59286;59.274;17.974;2023-10-13T01:51:50;100147.13;;;4.87;98.03
71476;BME280;59286;59.274;17.974;2023-10-13T01:54:15;100154.66;;;4.89;98.37
71476;BME280;59286;59.274;17.974;2023-10-13T01:56:41;100157.75;;;4.91;97.64
71476;BME280;59286;59.274;17.974;2023-10-13T01:59:13;100156.97;;;4.96;97.45
71476;BME280;59286;59.274;17.974;2023-10-13T02:01:39;100157.72;;;4.96;97.28
71476;BME280;59286;59.274;17.974;2023-10-13T02:04:06;100149.69;;;4.92;98.03
71476;BME280;59286;59.274;17.974;2023-10-13T02:06:36;100154.69;;;4.84;98.91
71476;BME280;59286;59.274;17.974;2023-10-13T02:09:06;100156.78;;;4.77;98.38
71476;BME280;59286;59.274;17.974;2023-10-13T02:11:51;100172.88;;;4.79;99.09
71476;BME280;59286;59.274;17.974;2023-10-13T02:14:22;100169.03;;;4.71;99.02
71476;BME280;59286;59.274;17.974;2023-10-13T02:16:51;100169.00;;;4.66;99.05
71476;BME280;59286;59.274;17.974;2023-10-13T02:19:21;100170.34;;;4.59;99.86
71476;BME280;59286;59.274;17.974;2023-10-13T02:21:47;100165.19;;;4.54;100.00
71476;BME280;59286;59.274;17.974;2023-10-13T02:24:23;100170.34;;;4.59;100.00
71476;BME280;59286;59.274;17.974;2023-10-13T02:26:55;100167.78;;;4.54;100.00
71476;BME280;59286;59.274;17.974;2023-10-13T02:29:21;100164.63;;;4.62;100.00
71476;BME280;59286;59.274;17.974;2023-10-13T02:31:47;100164.06;;;4.70;100.00
71476;BME280;59286;59.274;17.974;2023-10-13T02:34:20;100164.34;;;4.68;100.00
71476;BME280;59286;59.274;17.974;2023-10-13T02:36:48;100176.00;;;4.76;100.00
71476;BME280;59286;59.274;17.974;2023-10-13T02:39:17;100165.38;;;4.72;100.00
71476;BME280;59286;59.274;17.974;2023-10-13T02:41:50;100168.19;;;4.76;100.00
71476;BME280;59286;59.274;17.974;2023-10-13T02:44:16;100170.81;;;4.81;100.00
71476;BME280;59286;59.274;17.974;2023-10-13T02:46:52;100159.91;;;4.79;100.00
71476;BME280;59286;59.274;17.974;2023-10-13T02:49:20;100160.41;;;4.76;99.42
71476;BME280;59286;59.274;17.974;2023-10-13T02:51:45;100161.47;;;4.70;100.00
71476;BME280;59286;59.274;17.974;2023-10-13T02:54:11;100173.94;;;4.73;100.00
71476;BME280;59286;59.274;17.974;2023-10-13T02:56:45;100176.81;;;4.66;100.00
71476;BME280;59286;59.274;17.974;2023-10-13T02:59:15;100175.03;;;4.62;100.00
71476;BME280;59286;59.274;17.974;2023-10-13T03:01:44;100164.16;;;4.55;100.00
71476;BME280;59286;59.274;17.974;2023-10-13T03:04:10;100165.69;;;4.56;100.00
71476;BME280;59286;59.274;17.974;2023-10-13T03:06:37;100164.66;;;4.52;100.00
71476;BME280;59286;59.274;17.974;2023-10-13T03:09:08;100157.91;;;4.46;100.00
71476;BME280;59286;59.274;17.974;2023-10-13T03:11:46;100160.28;;;4.47;100.00
71476;BME280;59286;59.274;17.974;2023-10-13T03:16:55;100159.50;;;4.47;100.00
71476;BME280;59286;59.274;17.974;2023-10-13T03:19:27;100167.81;;;4.39;100.00
71476;BME280;59286;59.274;17.974;2023-10-13T03:21:58;100166.53;;;4.36;100.00
71476;BME280;59286;59.274;17.974;2023-10-13T03:24:31;100172.50;;;4.32;100.00
71476;BME280;59286;59.274;17.974;2023-10-13T03:27:01;100182.09;;;4.31;100.00
71476;BME280;59286;59.274;17.974;2023-10-13T03:29:37;100171.44;;;4.33;100.00
71476;BME280;59286;59.274;17.974;2023-10-13T03:32:14;100171.72;;;4.36;100.00
71476;BME280;59286;59.274;17.974;2023-10-13T03:34:44;100170.69;;;4.32;100.00
71476;BME280;59286;59.274;17.974;2023-10-13T03:37:16;100172.78;;;4.30;100.00
71476;BME280;59286;59.274;17.974;2023-10-13T03:40:02;100151.78;;;4.17;100.00
71476;BME280;59286;59.274;17.974;2023-10-13T03:42:31;100165.78;;;4.31;100.00
71476;BME280;59286;59.274;17.974;2023-10-13T03:44:57;100155.13;;;4.22;100.00
71476;BME280;59286;59.274;17.974;2023-10-13T03:47:22;100164.22;;;4.20;100.00
71476;BME280;59286;59.274;17.974;2023-10-13T03:49:57;100172.00;;;4.25;100.00
71476;BME280;59286;59.274;17.974;2023-10-13T03:52:41;100176.41;;;4.34;100.00
71476;BME280;59286;59.274;17.974;2023-10-13T03:55:07;100176.09;;;4.41;100.00
71476;BME280;59286;59.274;17.974;2023-10-13T03:57:33;100169.38;;;4.40;100.00
71476;BME280;59286;59.274;17.974;2023-10-13T03:59:59;100173.50;;;4.41;100.00
71476;BME280;59286;59.274;17.974;2023-10-13T04:02:33;100180.50;;;4.40;100.00
71476;BME280;59286;59.274;17.974;2023-10-13T04:04:58;100166.00;;;4.39;100.00
71476;BME280;59286;59.274;17.974;2023-10-13T04:07:32;100177.94;;;4.45;100.00
71476;BME280;59286;59.274;17.974;2023-10-13T04:09:57;100178.69;;;4.46;100.00
71476;BME280;59286;59.274;17.974;2023-10-13T04:12:41;100166.75;;;4.45;100.00
71476;BME280;59286;59.274;17.974;2023-10-13T04:15:25;100185.41;;;4.52;100.00
71476;BME280;59286;59.274;17.974;2023-10-13T04:18:01;100188.56;;;4.49;100.00
71476;BME280;59286;59.274;17.974;2023-10-13T04:20:39;100174.53;;;4.45;100.00
71476;BME280;59286;59.274;17.974;2023-10-13T04:23:04;100184.94;;;4.45;100.00
71476;BME280;59286;59.274;17.974;2023-10-13T04:25:50;100193.25;;;4.42;100.00
71476;BME280;59286;59.274;17.974;2023-10-13T04:28:15;100194.03;;;4.37;100.00
71476;BME280;59286;59.274;17.974;2023-10-13T04:31:00;100190.16;;;4.30;100.00
71476;BME280;59286;59.274;17.974;2023-10-13T04:33:37;100189.38;;;4.24;100.00
71476;BME280;59286;59.274;17.974;2023-10-13T04:36:16;100189.91;;;4.26;100.00
71476;BME280;59286;59.274;17.974;2023-10-13T04:39:02;100181.84;;;4.28;100.00
71476;BME280;59286;59.274;17.974;2023-10-13T04:41:40;100170.97;;;4.31;100.00
71476;BME280;59286;59.274;17.974;2023-10-13T04:44:14;100179.25;;;4.38;100.00
71476;BME280;59286;59.274;17.974;2023-10-13T04:46:56;100180.50;;;4.40;100.00
71476;BME280;59286;59.274;17.974;2023-10-13T04:49:25;100186.50;;;4.41;100.00
71476;BME280;59286;59.274;17.974;2023-10-13T04:54:39;100175.88;;;4.32;100.00
71476;BME280;59286;59.274;17.974;2023-10-13T04:57:15;100171.19;;;4.29;100.00
71476;BME280;59286;59.274;17.974;2023-10-13T05:00:03;100181.81;;;4.33;100.00
71476;BME280;59286;59.274;17.974;2023-10-13T05:02:29;100177.16;;;4.35;100.00
71476;BME280;59286;59.274;17.974;2023-10-13T05:05:01;100173.53;;;4.36;100.00
71476;BME280;59286;59.274;17.974;2023-10-13T05:07:39;100163.94;;;4.31;100.00
71476;BME280;59286;59.274;17.974;2023-10-13T05:10:24;100172.47;;;4.37;100.00
71476;BME280;59286;59.274;17.974;2023-10-13T05:13:08;100163.69;;;4.38;100.00
71476;BME280;59286;59.274;17.974;2023-10-13T05:15:52;100170.16;;;4.35;100.00
71476;BME280;59286;59.274;17.974;2023-10-13T05:18:36;100165.78;;;4.31;100.00
71476;BME280;59286;59.274;17.974;2023-10-13T05:21:21;100150.97;;;4.26;100.00
71476;BME280;59286;59.274;17.974;2023-10-13T05:24:05;100143.47;;;4.25;100.00
71476;BME280;59286;59.274;17.974;2023-10-13T05:26:51;100133.59;;;4.22;100.00
71476;BME280;59286;59.274;17.974;2023-10-13T05:29:38;100135.94;;;4.28;100.00
71476;BME280;59286;59.274;17.974;2023-10-13T05:32:22;100133.88;;;4.20;100.00
71476;BME280;59286;59.274;17.974;2023-10-13T05:35:06;100147.09;;;4.19;100.00
71476;BME280;59286;59.274;17.974;2023-10-13T05:37:50;100144.28;;;4.15;100.00
71476;BME280;59286;59.274;17.974;2023-10-13T05:40:34;100142.69;;;4.14;100.00
71476;BME280;59286;59.274;17.974;2023-10-13T05:43:18;100149.47;;;4.15;100.00
71476;BME280;59286;59.274;17.974;2023-10-13T05:46:05;100155.41;;;4.21;100.00
71476;BME280;59286;59.274;17.974;2023-10-13T05:48:49;100157.25;;;4.10;100.00
71476;BME280;59286;59.274;17.974;2023-10-13T05:51:29;100162.69;;;4.14;100.00
71476;BME280;59286;59.274;17.974;2023-10-13T05:54:01;100163.47;;;4.09;100.00
71476;BME280;59286;59.274;17.974;2023-10-13T05:56:42;100167.09;;;4.08;100.00
71476;BME280;59286;59.274;17.974;2023-10-13T05:59:28;100174.09;;;4.08;100.00
71476;BME280;59286;59.274;17.974;2023-10-13T06:02:14;100166.06;;;3.94;100.00
71476;BME280;59286;59.274;17.974;2023-10-13T06:05:04;100168.66;;;3.99;100.00
71476;BME280;59286;59.274;17.974;2023-10-13T06:07:48;100157.53;;;3.99;100.00
71476;BME280;59286;59.274;17.974;2023-10-13T06:10:32;100163.22;;;4.01;100.00
71476;BME280;59286;59.274;17.974;2023-10-13T06:13:16;100165.03;;;4.05;100.00
71476;BME280;59286;59.274;17.974;2023-10-13T06:16:05;100161.41;;;4.06;100.00
71476;BME280;59286;59.274;17.974;2023-10-13T06:18:48;100183.94;;;4.11;100.00
71476;BME280;59286;59.274;17.974;2023-10-13T06:21:32;100169.94;;;4.17;100.00
71476;BME280;59286;59.274;17.974;2023-10-13T06:24:16;100186.78;;;4.34;100.00
71476;BME280;59286;59.274;17.974;2023-10-13T06:27:00;100177.41;;;4.43;100.00
71476;BME280;59286;59.274;17.974;2023-10-13T06:29:44;100177.63;;;4.52;100.00
71476;BME280;59286;59.274;17.974;2023-10-13T06:32:11;100183.31;;;4.64;100.00
71476;BME280;59286;59.274;17.974;2023-10-13T06:34:37;100171.34;;;4.73;100.00
71476;BME280;59286;59.274;17.974;2023-10-13T06:37:06;100188.91;;;4.91;100.00
71476;BME280;59286;59.274;17.974;2023-10-13T06:39:52;100187.81;;;5.02;100.00
71476;BME280;59286;59.274;17.974;2023-10-13T06:42:30;100185.69;;;5.14;100.00
71476;BME280;59286;59.274;17.974;2023-10-13T06:44:59;100176.53;;;5.27;100.00
71476;BME280;59286;59.274;17.974;2023-10-13T06:47:33;100174.53;;;5.52;100.00
71476;BME280;59286;59.274;17.974;2023-10-13T06:49:58;100177.00;;;5.72;100.00
71476;BME280;59286;59.274;17.974;2023-10-13T06:52:25;100184.91;;;5.96;100.00
71476;BME280;59286;59.274;17.974;2023-10-13T06:54:54;100180.28;;;6.17;100.00
71476;BME280;59286;59.274;17.974;2023-10-13T06:57:20;100192.03;;;6.38;100.00
71476;BME280;59286;59.274;17.974;2023-10-13T06:59:49;100187.94;;;6.55;100.00
71476;BME280;59286;59.274;17.974;2023-10-13T07:02:14;100192.94;;;6.75;100.00
71476;BME280;59286;59.274;17.974;2023-10-13T07:04:58;100203.94;;;6.91;100.00
71476;BME280;59286;59.274;17.974;2023-10-13T07:17:59;100195.88;;;7.11;100.00
71476;BME280;59286;59.274;17.974;2023-10-13T07:20:25;100191.53;;;7.25;100.00
71476;BME280;59286;59.274;17.974;2023-10-13T07:22:53;100147.63;;;7.14;100.00
71476;BME280;59286;59.274;17.974;2023-10-13T07:25:32;100183.13;;;7.47;100.00
71476;BME280;59286;59.274;17.974;2023-10-13T07:28:00;100194.81;;;7.68;100.00
71476;BME280;59286;59.274;17.974;2023-10-13T07:30:26;100148.41;;;7.33;100.00
71476;BME280;59286;59.274;17.974;2023-10-13T07:32:52;100180.16;;;7.53;100.00
71476;BME280;59286;59.274;17.974;2023-10-13T07:35:19;100183.03;;;7.70;100.00
71476;BME280;59286;59.274;17.974;2023-10-13T07:37:46;100152.13;;;7.45;100.00
71476;BME280;59286;59.274;17.974;2023-10-13T07:40:18;100165.56;;;7.52;100.00
71476;BME280;59286;59.274;17.974;2023-10-13T07:42:56;100146.97;;;7.40;100.00
71476;BME280;59286;59.274;17.974;2023-10-13T07:45:38;100195.63;;;7.82;100.00
71476;BME280;59286;59.274;17.974;2023-10-13T07:48:07;100185.19;;;7.82;100.00
71476;BME280;59286;59.274;17.974;2023-10-13T07:50:45;100195.88;;;7.99;100.00
71476;BME280;59286;59.274;17.974;2023-10-13T07:53:11;100191.84;;;8.07;100.00
71476;BME280;59286;59.274;17.974;2023-10-13T07:55:52;100168.78;;;7.95;100.00
71476;BME280;59286;59.274;17.974;2023-10-13T07:58:24;100205.41;;;8.22;100.00
71476;BME280;59286;59.274;17.974;2023-10-13T08:00:53;100192.22;;;8.14;100.00
71476;BME280;59286;59.274;17.974;2023-10-13T08:03:34;100174.06;;;8.09;100.00
71476;BME280;59286;59.274;17.974;2023-10-13T08:06:08;100170.38;;;8.10;100.00
71476;BME280;59286;59.274;17.974;2023-10-13T08:08:38;100154.03;;;8.04;100.00
71476;BME280;59286;59.274;17.974;2023-10-13T08:11:05;100194.63;;;8.42;100.00
71476;BME280;59286;59.274;17.974;2023-10-13T08:13:39;100142.94;;;8.12;100.00
71476;BME280;59286;59.274;17.974;2023-10-13T08:16:11;100178.38;;;8.45;100.00
71476;BME280;59286;59.274;17.974;2023-10-13T08:18:47;100182.06;;;8.44;100.00
71476;BME280;59286;59.274;17.974;2023-10-13T08:21:15;100195.03;;;8.63;100.00
71476;BME280;59286;59.274;17.974;2023-10-13T08:23:49;100162.88;;;8.49;100.00
71476;BME280;59286;59.274;17.974;2023-10-13T08:26:22;100124.00;;;8.34;100.00
71476;BME280;59286;59.274;17.974;2023-10-13T08:29:05;100150.63;;;8.63;100.00
71476;BME280;59286;59.274;17.974;2023-10-13T08:31:50;100175.47;;;8.74;100.00
71476;BME280;59286;59.274;17.974;2023-10-13T08:34:36;100153.78;;;8.60;100.00
71476;BME280;59286;59.274;17.974;2023-10-13T08:37:09;100177.69;;;8.80;100.00
71476;BME280;59286;59.274;17.974;2023-10-13T08:39:47;100157.25;;;8.69;100.00
71476;BME280;59286;59.274;17.974;2023-10-13T08:42:35;100159.50;;;8.89;100.00
71476;BME280;59286;59.274;17.974;2023-10-13T08:45:07;100159.00;;;8.87;100.00
71476;BME280;59286;59.274;17.974;2023-10-13T08:47:51;100162.28;;;8.93;100.00
71476;BME280;59286;59.274;17.974;2023-10-13T08:50:42;100138.94;;;8.96;100.00
71476;BME280;59286;59.274;17.974;2023-10-13T08:58:31;100167.81;;;9.27;99.19
71476;BME280;59286;59.274;17.974;2023-10-13T09:01:15;100180.53;;;9.42;98.62
71476;BME280;59286;59.274;17.974;2023-10-13T09:03:59;100178.72;;;9.42;97.49
71476;BME280;59286;59.274;17.974;2023-10-13T09:06:54;100174.72;;;9.45;98.29
71476;BME280;59286;59.274;17.974;2023-10-13T09:12:22;100172.66;;;9.55;97.99
71476;BME280;59286;59.274;17.974;2023-10-13T09:15:01;100180.84;;;9.62;97.67
71476;BME280;59286;59.274;17.974;2023-10-13T09:17:47;100175.78;;;9.66;97.48
71476;BME280;59286;59.274;17.974;2023-10-13T09:20:33;100178.59;;;9.69;96.98
71476;BME280;59286;59.274;17.974;2023-10-13T09:23:09;100178.13;;;9.67;95.96
71476;BME280;59286;59.274;17.974;2023-10-13T09:25:36;100149.75;;;9.61;96.64
71476;BME280;59286;59.274;17.974;2023-10-13T09:28:10;100171.69;;;9.73;95.93
71476;BME280;59286;59.274;17.974;2023-10-13T09:30:47;100153.66;;;9.72;96.49
71476;BME280;59286;59.274;17.974;2023-10-13T09:33:12;100167.06;;;9.70;96.60
71476;BME280;59286;59.274;17.974;2023-10-13T09:35:44;100169.28;;;9.77;95.87
71476;BME280;59286;59.274;17.974;2023-10-13T09:38:16;100126.50;;;9.59;95.35
71476;BME280;59286;59.274;17.974;2023-10-13T09:40:43;100154.97;;;9.83;94.53
71476;BME280;59286;59.274;17.974;2023-10-13T09:43:18;100146.88;;;9.93;93.87
71476;BME280;59286;59.274;17.974;2023-10-13T09:45:49;100134.09;;;9.92;95.05
71476;BME280;59286;59.274;17.974;2023-10-13T09:48:39;100157.94;;;10.12;93.90
71476;BME280;59286;59.274;17.974;2023-10-13T09:51:16;100140.88;;;10.23;95.30
71476;BME280;59286;59.274;17.974;2023-10-13T09:53:52;100123.66;;;10.31;93.37
71476;BME280;59286;59.274;17.974;2023-10-13T09:56:32;100124.75;;;10.38;93.25
71476;BME280;59286;59.274;17.974;2023-10-13T09:59:11;100114.56;;;10.37;91.52
71476;BME280;59286;59.274;17.974;2023-10-13T10:01:43;100121.69;;;10.45;90.82
71476;BME280;59286;59.274;17.974;2023-10-13T10:04:16;100101.03;;;10.35;90.07
71476;BME280;59286;59.274;17.974;2023-10-13T10:06:57;100121.53;;;10.50;90.02
71476;BME280;59286;59.274;17.974;2023-10-13T10:09:31;100127.41;;;10.55;88.55
71476;BME280;59286;59.274;17.974;2023-10-13T10:17:28;100111.50;;;10.43;90.10
71476;BME280;59286;59.274;17.974;2023-10-13T10:19:55;100101.19;;;10.38;89.14
71476;BME280;59286;59.274;17.974;2023-10-13T10:22:39;100102.75;;;10.48;88.64
71476;BME280;59286;59.274;17.974;2023-10-13T10:25:10;100091.91;;;10.41;87.83
71476;BME280;59286;59.274;17.974;2023-10-13T10:28:04;100096.88;;;10.51;89.90
71476;BME280;59286;59.274;17.974;2023-10-13T10:30:35;100085.00;;;10.45;89.61
71476;BME280;59286;59.274;17.974;2023-10-13T10:33:04;100097.19;;;10.58;87.75
71476;BME280;59286;59.274;17.974;2023-10-13T10:35:38;100068.69;;;10.48;88.08
71476;BME280;59286;59.274;17.974;2023-10-13T10:41:00;100085.50;;;10.72;87.33
71476;BME280;59286;59.274;17.974;2023-10-13T10:46:15;100062.81;;;10.51;86.64
71476;BME280;59286;59.274;17.974;2023-10-13T10:48:44;100069.59;;;10.52;87.31
71476;BME280;59286;59.274;17.974;2023-10-13T10:51:14;100058.97;;;10.57;87.60
71476;BME280;59286;59.274;17.974;2023-10-13T10:53:50;100065.91;;;10.61;88.09
71476;BME280;59286;59.274;17.974;2023-10-13T10:56:18;100044.31;;;10.56;86.54
71476;BME280;59286;59.274;17.974;2023-10-13T10:59:04;100044.63;;;10.54;86.17
71476;BME280;59286;59.274;17.974;2023-10-13T11:01:30;100033.22;;;10.50;87.93
71476;BME280;59286;59.274;17.974;2023-10-13T11:04:00;100057.91;;;10.66;88.34
71476;BME280;59286;59.274;17.974;2023-10-13T11:06:46;100045.09;;;10.65;87.61
71476;BME280;59286;59.274;17.974;2023-10-13T11:09:12;100043.72;;;10.67;87.11
71476;BME280;59286;59.274;17.974;2023-10-13T11:14:39;100032.63;;;10.70;86.96
71476;BME280;59286;59.274;17.974;2023-10-13T11:17:04;100014.91;;;10.59;86.17
71476;BME280;59286;59.274;17.974;2023-10-13T11:19:39;100012.28;;;10.67;86.41
71476;BME280;59286;59.274;17.974;2023-10-13T11:22:15;100015.69;;;10.85;84.96
71476;BME280;59286;59.274;17.974;2023-10-13T11:25:03;100007.50;;;10.87;86.23
71476;BME280;59286;59.274;17.974;2023-10-13T11:27:39;100019.53;;;10.96;84.27
71476;BME280;59286;59.274;17.974;2023-10-13T11:30:30;99977.91;;;10.78;83.48
71476;BME280;59286;59.274;17.974;2023-10-13T11:33:10;99999.59;;;10.95;85.45
71476;BME280;59286;59.274;17.974;2023-10-13T11:35:37;99980.97;;;10.71;84.22
71476;BME280;59286;59.274;17.974;2023-10-13T11:38:19;99980.34;;;10.83;85.11
71476;BME280;59286;59.274;17.974;2023-10-13T11:40:59;99969.22;;;10.86;84.38
71476;BME280;59286;59.274;17.974;2023-10-13T11:43:40;99986.03;;;10.93;85.20
71476;BME280;59286;59.274;17.974;2023-10-13T11:46:09;99988.94;;;11.00;84.95
71476;BME280;59286;59.274;17.974;2023-10-13T11:48:35;99977.22;;;11.06;83.85
71476;BME280;59286;59.274;17.974;2023-10-13T11:51:05;99966.59;;;11.03;84.77
71476;BME280;59286;59.274;17.974;2023-10-13T11:53:33;99962.13;;;11.03;85.47
71476;BME280;59286;59.274;17.974;2023-10-13T11:55:59;99950.06;;;11.02;85.09
71476;BME280;59286;59.274;17.974;2023-10-13T11:58:24;99938.84;;;10.93;83.20
71476;BME280;59286;59.274;17.974;2023-10-13T12:00:50;99954.53;;;11.10;83.85
71476;BME280;59286;59.274;17.974;2023-10-13T12:03:34;99944.22;;;11.05;82.74
71476;BME280;59286;59.274;17.974;2023-10-13T12:06:18;99951.13;;;11.18;84.86
71476;BME280;59286;59.274;17.974;2023-10-13T12:08:59;99918.59;;;11.02;84.16
71476;BME280;59286;59.274;17.974;2023-10-13T12:11:39;99943.13;;;11.15;82.47
71476;BME280;59286;59.274;17.974;2023-10-13T12:14:10;99912.16;;;11.00;80.77
71476;BME280;59286;59.274;17.974;2023-10-13T12:16:49;99914.28;;;11.06;81.99
71476;BME280;59286;59.274;17.974;2023-10-13T12:19:20;99919.19;;;11.16;83.12
71476;BME280;59286;59.274;17.974;2023-10-13T12:21:53;99904.69;;;11.10;81.74
71476;BME280;59286;59.274;17.974;2023-10-13T12:24:26;99898.38;;;11.11;81.68
71476;BME280;59286;59.274;17.974;2023-10-13T12:27:04;99907.78;;;11.12;80.82
71476;BME280;59286;59.274;17.974;2023-10-13T12:29:49;99898.25;;;10.99;79.42
71476;BME280;59286;59.274;17.974;2023-10-13T12:32:16;99882.72;;;10.86;80.08
71476;BME280;59286;59.274;17.974;2023-10-13T12:34:47;99882.25;;;10.92;79.86
71476;BME280;59286;59.274;17.974;2023-10-13T12:37:41;99868.13;;;10.67;80.75
71476;BME280;59286;59.274;17.974;2023-10-13T12:40:07;99882.72;;;10.86;80.64
71476;BME280;59286;59.274;17.974;2023-10-13T12:42:52;99847.00;;;10.64;79.58
71476;BME280;59286;59.274;17.974;2023-10-13T12:45:43;99869.31;;;10.87;80.64
71476;BME280;59286;59.274;17.974;2023-10-13T12:48:28;99851.56;;;10.84;80.15
71476;BME280;59286;59.274;17.974;2023-10-13T12:51:13;99823.22;;;10.78;80.83
71476;BME280;59286;59.274;17.974;2023-10-13T12:53:57;99831.84;;;10.87;80.71
71476;BME280;59286;59.274;17.974;2023-10-13T12:56:45;99783.97;;;10.52;82.04
71476;BME280;59286;59.274;17.974;2023-10-13T12:59:11;99828.91;;;10.88;80.52
71476;BME280;59286;59.274;17.974;2023-10-13T13:01:40;99787.66;;;10.68;82.01
71476;BME280;59286;59.274;17.974;2023-10-13T13:04:11;99814.53;;;10.94;80.97
71476;BME280;59286;59.274;17.974;2023-10-13T13:06:43;99754.81;;;10.62;82.82
71476;BME280;59286;59.274;17.974;2023-10-13T13:09:09;99780.00;;;10.84;81.43
71476;BME280;59286;59.274;17.974;2023-10-13T13:11:35;99768.78;;;10.83;81.78
71476;BME280;59286;59.274;17.974;2023-10-13T13:14:05;99752.47;;;10.78;81.79
71476;BME280;59286;59.274;17.974;2023-10-13T13:16:33;99770.56;;;10.91;81.59
71476;BME280;59286;59.274;17.974;2023-10-13T13:18:58;99732.50;;;10.56;81.96
71476;BME280;59286;59.274;17.974;2023-10-13T13:21:24;99758.16;;;10.80;83.11
71476;BME280;59286;59.274;17.974;2023-10-13T13:23:52;99726.47;;;10.55;82.75
71476;BME280;59286;59.274;17.974;2023-10-13T13:26:20;99740.19;;;10.61;81.89
71476;BME280;59286;59.274;17.974;2023-10-13T13:28:46;99739.56;;;10.64;82.52
71476;BME280;59286;59.274;17.974;2023-10-13T13:31:15;99730.19;;;10.54;82.96
71476;BME280;59286;59.274;17.974;2023-10-13T13:33:41;99742.03;;;10.60;82.15
71476;BME280;59286;59.274;17.974;2023-10-13T13:36:12;99722.22;;;10.42;83.06
71476;BME280;59286;59.274;17.974;2023-10-13T13:38:44;99716.69;;;10.44;81.34
71476;BME280;59286;59.274;17.974;2023-10-13T13:41:14;99700.22;;;10.35;83.65
71476;BME280;59286;59.274;17.974;2023-10-13T13:43:46;99699.13;;;10.36;83.64
71476;BME280;59286;59.274;17.974;2023-10-13T13:46:21;99706.03;;;10.49;84.88
71476;BME280;59286;59.274;17.974;2023-10-13T13:48:54;99696.94;;;10.46;84.80
71476;BME280;59286;59.274;17.974;2023-10-13T13:51:32;99692.72;;;10.54;85.30
71476;BME280;59286;59.274;17.974;2023-10-13T13:53:59;99695.03;;;10.55;84.80
71476;BME280;59286;59.274;17.974;2023-10-13T13:56:25;99693.56;;;10.46;86.10
71476;BME280;59286;59.274;17.974;2023-10-13T13:58:53;99682.31;;;10.37;86.31